Time;durP1;ratioP1;P1;durP2;ratioP2;P2;SDS_P1;SDS_P2;PMS_P1;PMS_P2;Temp;Humidity;BMP_temperature;BMP_pressure;BME280_temperature;BME280_humidity;BME280_pressure;Samples;Min_cycle;Max_cycle;Signal;HPM_P1;HPM_P2
2024/01/07 00:00:57;;;;;;;3.38;2.40;;;;;;;1.94;100.00;92230.91;2106005;28;20099;-82
2024/01/07 00:01:57;;;;;;;4.25;2.08;;;;;;;1.96;100.00;92235.78;2105425;28;20055;-80
2024/01/07 00:02:58;;;;;;;4.38;2.25;;;;;;;1.93;100.00;92232.03;2106527;28;20024;-83
2024/01/07 00:03:59;;;;;;;2.88;2.10;;;;;;;2.02;100.00;92229.00;2110733;28;20096;-81
2024/01/07 00:05:01;;;;;;;3.42;2.38;;;;;;;2.02;100.00;92229.00;2110093;28;20110;-80
2024/01/07 00:06:04;;;;;;;3.28;2.10;;;;;;;2.05;100.00;92233.47;2097554;28;20047;-81
2024/01/07 00:07:12;;;;;;;2.92;2.25;;;;;;;2.08;100.00;92234.63;2092658;28;20033;-82
2024/01/07 00:08:13;;;;;;;2.55;2.35;;;;;;;2.10;100.00;92234.97;2098172;28;20021;-81
2024/01/07 00:09:14;;;;;;;2.80;2.15;;;;;;;2.09;100.00;92228.19;2113099;28;20074;-81
2024/01/07 00:10:15;;;;;;;1.92;1.83;;;;;;;2.15;100.00;92231.94;2102347;28;20044;-79
2024/01/07 00:11:16;;;;;;;1.88;1.70;;;;;;;2.04;100.00;92231.97;2111517;28;20016;-78
2024/01/07 00:12:18;;;;;;;2.00;1.90;;;;;;;2.23;100.00;92233.41;2114441;28;20456;-79
2024/01/07 00:13:22;;;;;;;2.70;2.30;;;;;;;2.20;100.00;92234.19;2110133;28;20090;-83
2024/01/07 00:14:23;;;;;;;3.17;2.00;;;;;;;2.16;100.00;92233.44;2097230;28;20142;-83
2024/01/07 00:15:26;;;;;;;4.70;2.08;;;;;;;2.15;100.00;92235.34;2096734;28;20024;-81
2024/01/07 00:16:27;;;;;;;2.25;1.90;;;;;;;2.01;100.00;92238.75;2113642;28;20023;-80
2024/01/07 00:17:28;;;;;;;3.15;2.10;;;;;;;2.00;100.00;92229.34;2113214;28;20070;-81
2024/01/07 00:18:29;;;;;;;1.98;1.77;;;;;;;2.00;100.00;92239.16;2112019;28;20388;-79
2024/01/07 00:19:31;;;;;;;2.30;1.92;;;;;;;1.99;100.00;92238.41;2108624;28;20035;-81
2024/01/07 00:20:32;;;;;;;3.17;2.05;;;;;;;1.96;100.00;92239.16;2113195;28;20048;-79
2024/01/07 00:21:33;;;;;;;1.95;1.80;;;;;;;1.96;100.00;92238.41;2113410;28;20030;-77
2024/01/07 00:22:34;;;;;;;2.63;2.00;;;;;;;2.09;100.00;92238.75;2092676;28;20021;-82
2024/01/07 00:23:36;;;;;;;2.85;1.92;;;;;;;2.02;100.00;92239.53;2100482;28;20058;-81
2024/01/07 00:24:38;;;;;;;1.83;1.73;;;;;;;2.04;100.00;92231.97;2112707;28;20019;-79
2024/01/07 00:25:39;;;;;;;1.85;1.75;;;;;;;2.00;100.00;92241.78;2112982;28;20458;-80
2024/01/07 00:26:40;;;;;;;2.50;2.30;;;;;;;2.04;100.00;92241.78;2104916;28;20024;-78
2024/01/07 00:27:41;;;;;;;2.03;1.83;;;;;;;2.00;100.00;92244.44;2109137;28;20027;-82
2024/01/07 00:28:42;;;;;;;3.88;2.15;;;;;;;2.03;100.00;92245.56;2112020;28;20125;-83
2024/01/07 00:29:43;;;;;;;1.92;1.83;;;;;;;1.84;100.00;92233.56;2104792;28;20094;-84
2024/01/07 00:30:44;;;;;;;3.08;2.03;;;;;;;1.88;100.00;92240.31;2100741;28;20477;-80
2024/01/07 00:31:45;;;;;;;1.95;1.85;;;;;;;1.82;100.00;92231.31;2103190;28;20028;-76
2024/01/07 00:32:46;;;;;;;3.08;2.15;;;;;;;1.76;100.00;92236.22;2096473;28;20476;-81
2024/01/07 00:33:50;;;;;;;2.30;2.00;;;;;;;1.79;100.00;92237.34;2088621;28;20029;-82
2024/01/07 00:34:51;;;;;;;2.33;2.10;;;;;;;1.85;100.00;92241.09;2097377;28;20032;-81
2024/01/07 00:35:52;;;;;;;2.40;2.10;;;;;;;1.91;100.00;92238.81;2105178;28;20192;-80
2024/01/07 00:36:53;;;;;;;2.38;2.05;;;;;;;1.86;100.00;92234.69;2109108;28;20223;-78
2024/01/07 00:37:56;;;;;;;2.25;2.05;;;;;;;1.80;100.00;92230.97;2105051;28;20032;-80
2024/01/07 00:38:57;;;;;;;1.90;1.80;;;;;;;1.85;100.00;92232.44;2105037;28;20142;-80
2024/01/07 00:40:40;;;;;;;2.10;1.90;;;;;;;1.88;100.00;92235.06;2107887;28;20105;-83
2024/01/07 00:41:41;;;;;;;1.80;1.70;;;;;;;1.82;100.00;92233.94;2106905;28;20054;-80
2024/01/07 00:42:42;;;;;;;2.90;2.13;;;;;;;1.85;100.00;92241.09;2103102;28;20016;-80
2024/01/07 00:43:43;;;;;;;1.92;1.80;;;;;;;1.84;100.00;92230.94;2095728;28;20517;-82
2024/01/07 00:47:25;;;;;;;2.10;1.90;;;;;;;1.94;100.00;92236.16;2111899;28;20034;-82
2024/01/07 00:48:25;;;;;;;2.33;2.13;;;;;;;1.85;100.00;92233.19;2101312;28;20365;-83
2024/01/07 00:49:27;;;;;;;2.35;2.15;;;;;;;1.92;100.00;92235.78;2093307;28;20064;-82
2024/01/07 00:50:28;;;;;;;2.45;2.25;;;;;;;1.83;100.00;92235.44;2113506;27;20028;-78
2024/01/07 00:51:29;;;;;;;2.65;2.30;;;;;;;1.78;100.00;92230.56;2114121;28;20413;-78
2024/01/07 00:52:35;;;;;;;2.63;2.20;;;;;;;1.94;100.00;92230.16;2101400;28;20390;-79
2024/01/07 00:53:36;;;;;;;2.17;2.00;;;;;;;1.95;100.00;92240.31;2103579;28;20067;-80
2024/01/07 00:54:37;;;;;;;2.60;2.40;;;;;;;2.02;100.00;92231.63;2103632;28;20422;-78
2024/01/07 00:55:37;;;;;;;2.67;2.42;;;;;;;2.08;100.00;92232.72;2087892;28;20036;-80
2024/01/07 00:56:38;;;;;;;3.95;2.25;;;;;;;2.15;100.00;92235.34;2083523;28;20029;-84
2024/01/07 00:57:40;;;;;;;3.03;2.40;;;;;;;2.11;100.00;92233.81;2095048;28;20060;-84
2024/01/07 00:58:41;;;;;;;3.50;2.80;;;;;;;2.11;100.00;92236.47;2104733;28;20060;-82
2024/01/07 00:59:42;;;;;;;3.13;2.83;;;;;;;1.96;100.00;92236.53;2111328;28;20130;-82
2024/01/07 01:00:43;;;;;;;2.72;2.53;;;;;;;2.00;100.00;92232.00;2100172;28;20039;-81
2024/01/07 01:01:44;;;;;;;2.85;2.60;;;;;;;1.93;100.00;92234.69;2088311;28;20048;-79
2024/01/07 01:02:46;;;;;;;3.55;2.58;;;;;;;2.12;100.00;92235.34;2088436;28;20435;-82
2024/01/07 01:03:47;;;;;;;3.38;2.90;;;;;;;2.02;100.00;92231.63;2104897;28;20527;-80
2024/01/07 01:04:48;;;;;;;3.70;3.10;;;;;;;2.08;100.00;92231.97;2108415;28;20030;-78
2024/01/07 01:05:49;;;;;;;3.53;3.22;;;;;;;2.03;100.00;92233.13;2104709;28;20019;-81
2024/01/07 01:06:50;;;;;;;3.50;3.20;;;;;;;2.11;100.00;92241.72;2104862;28;20031;-82
2024/01/07 01:07:51;;;;;;;3.75;3.45;;;;;;;2.11;100.00;92242.50;2107814;28;20043;-79
2024/01/07 01:08:52;;;;;;;3.42;3.00;;;;;;;1.97;100.00;92245.94;2108432;28;20035;-81
2024/01/07 01:09:53;;;;;;;4.43;3.70;;;;;;;2.00;100.00;92236.53;2096132;28;20112;-83
2024/01/07 01:10:54;;;;;;;4.57;3.67;;;;;;;2.01;100.00;92241.41;2103706;28;20147;-81
2024/01/07 01:11:55;;;;;;;3.70;3.40;;;;;;;2.04;100.00;92237.25;2104779;28;20028;-82
2024/01/07 01:12:56;;;;;;;3.63;3.30;;;;;;;1.95;100.00;92237.66;2113101;28;20027;-81
2024/01/07 01:13:57;;;;;;;4.10;3.70;;;;;;;1.99;100.00;92238.41;2113081;28;20648;-82
2024/01/07 01:14:58;;;;;;;4.47;3.63;;;;;;;1.97;100.00;92243.28;2096085;28;20051;-79
2024/01/07 01:15:59;;;;;;;3.65;3.15;;;;;;;2.09;100.00;92234.22;2096351;28;20028;-80
2024/01/07 01:17:00;;;;;;;4.10;3.63;;;;;;;2.05;100.00;92248.53;2112674;28;20023;-84
2024/01/07 01:18:01;;;;;;;3.72;3.33;;;;;;;2.04;100.00;92244.41;2111208;28;20110;-81
2024/01/07 01:19:02;;;;;;;4.53;3.53;;;;;;;1.98;100.00;92241.44;2099311;28;20432;-84
2024/01/07 01:20:03;;;;;;;4.50;3.65;;;;;;;1.98;100.00;92250.09;2101763;28;20035;-80
2024/01/07 01:21:04;;;;;;;4.32;3.65;;;;;;;1.86;100.00;92244.47;2088268;28;20071;-83
2024/01/07 01:22:13;;;;;;;3.38;3.08;;;;;;;1.78;100.00;92249.00;2096585;28;20770;-83
2024/01/07 01:23:14;;;;;;;4.00;3.50;;;;;;;1.90;100.00;92247.84;2097796;28;20055;-80
2024/01/07 01:24:15;;;;;;;4.82;3.67;;;;;;;1.90;100.00;92243.34;2103161;28;20051;-82
2024/01/07 01:25:16;;;;;;;3.85;3.47;;;;;;;1.91;100.00;92246.72;2112661;27;20039;-83
2024/01/07 01:26:23;;;;;;;4.03;3.63;;;;;;;1.97;100.00;92239.91;2109802;28;20043;-81
2024/01/07 01:27:24;;;;;;;4.85;3.47;;;;;;;2.01;100.00;92246.66;2113075;28;20019;-82
2024/01/07 01:28:25;;;;;;;3.78;3.33;;;;;;;2.10;100.00;92242.88;2113216;28;20077;-81
2024/01/07 01:29:26;;;;;;;4.03;3.60;;;;;;;2.09;100.00;92250.03;2113062;28;20150;-80
2024/01/07 01:30:30;;;;;;;4.57;3.50;;;;;;;2.06;100.00;92244.78;2106977;28;20051;-81
2024/01/07 01:31:31;;;;;;;4.25;3.58;;;;;;;1.94;100.00;92248.59;2110071;28;20034;-80
2024/01/07 01:32:35;;;;;;;4.13;3.70;;;;;;;1.94;100.00;92244.06;2099730;28;20085;-81
2024/01/07 01:33:36;;;;;;;4.45;4.05;;;;;;;1.98;100.00;92250.09;2097387;28;20472;-80
2024/01/07 01:34:40;;;;;;;4.55;4.05;;;;;;;1.96;100.00;92248.97;2104701;28;20023;-81
2024/01/07 01:35:41;;;;;;;4.50;3.88;;;;;;;2.00;100.00;92249.69;2105613;28;20165;-80
2024/01/07 01:36:42;;;;;;;5.65;4.57;;;;;;;2.02;100.00;92247.44;2108819;28;20020;-84
2024/01/07 01:37:43;;;;;;;5.55;4.22;;;;;;;2.00;100.00;92250.44;2107935;28;20142;-82
2024/01/07 01:38:44;;;;;;;4.35;3.90;;;;;;;2.03;100.00;92242.91;2100072;28;20504;-83
2024/01/07 01:39:45;;;;;;;4.88;4.15;;;;;;;1.94;100.00;92248.59;2087840;28;20028;-82
2024/01/07 01:40:53;;;;;;;4.95;4.00;;;;;;;2.04;100.00;92254.97;2095340;28;20452;-81
2024/01/07 01:41:54;;;;;;;4.07;3.45;;;;;;;2.16;100.00;92249.25;2105266;28;20028;-78
2024/01/07 01:42:55;;;;;;;4.22;3.80;;;;;;;1.98;100.00;92246.72;2101466;28;20035;-83
2024/01/07 01:44:00;;;;;;;5.10;4.30;;;;;;;2.01;100.00;92244.03;2098781;28;20028;-80
2024/01/07 01:45:02;;;;;;;4.72;4.00;;;;;;;2.05;100.00;92246.66;2113071;28;20086;-82
2024/01/07 01:46:03;;;;;;;4.10;3.70;;;;;;;2.05;100.00;92238.75;2112848;28;20031;-80
2024/01/07 01:47:06;;;;;;;5.47;4.50;;;;;;;2.19;100.00;92240.56;2092886;28;20092;-80
2024/01/07 01:48:08;;;;;;;4.85;4.18;;;;;;;2.17;100.00;92248.13;2093777;28;20077;-82
2024/01/07 01:49:09;;;;;;;6.38;4.20;;;;;;;2.11;100.00;92241.72;2102884;28;20095;-80
2024/01/07 01:50:12;;;;;;;5.18;4.22;;;;;;;2.19;100.00;92243.22;2104818;28;20020;-82
2024/01/07 01:51:13;;;;;;;5.63;4.03;;;;;;;2.16;100.00;92244.00;2095849;28;20030;-82
2024/01/07 01:52:14;;;;;;;4.97;4.35;;;;;;;2.15;100.00;92251.16;2095776;28;20115;-80
2024/01/07 01:53:15;;;;;;;4.93;4.43;;;;;;;2.18;100.00;92245.09;2112741;28;20030;-80
2024/01/07 01:54:16;;;;;;;4.78;4.28;;;;;;;2.22;100.00;92253.75;2104007;28;20491;-81
2024/01/07 01:55:19;;;;;;;5.18;4.68;;;;;;;2.25;100.00;92241.69;2102714;28;20069;-80
2024/01/07 01:56:27;;;;;;;6.95;4.32;;;;;;;2.27;100.00;92249.94;2109790;28;20495;-82
2024/01/07 01:57:33;;;;;;;5.68;4.55;;;;;;;2.23;100.00;92247.31;2112479;28;20068;-82
2024/01/07 01:58:34;;;;;;;5.53;4.35;;;;;;;2.17;100.00;92251.50;2095500;28;20020;-78
2024/01/07 01:59:36;;;;;;;5.32;4.65;;;;;;;2.15;100.00;92259.06;2092128;28;20547;-82
2024/01/07 02:00:36;;;;;;;5.53;4.40;;;;;;;2.22;100.00;92253.00;2100560;28;20058;-80
2024/01/07 02:01:39;;;;;;;6.57;4.38;;;;;;;2.32;100.00;92246.91;2104201;28;20028;-82
2024/01/07 02:02:40;;;;;;;5.18;4.28;;;;;;;2.33;100.00;92247.66;2100138;28;20465;-83
2024/01/07 02:03:41;;;;;;;4.85;4.20;;;;;;;2.13;100.00;92240.22;2112984;28;20043;-82
2024/01/07 02:04:42;;;;;;;5.05;4.55;;;;;;;2.26;100.00;92245.81;2105357;28;20027;-79
2024/01/07 02:05:43;;;;;;;6.15;4.65;;;;;;;2.22;100.00;92247.72;2091766;28;20112;-83
2024/01/07 02:06:45;;;;;;;5.43;4.70;;;;;;;2.20;100.00;92252.63;2086788;28;20747;-82
2024/01/07 02:07:47;;;;;;;5.72;4.72;;;;;;;2.24;100.00;92248.09;2095269;28;20062;-82
2024/01/07 02:08:49;;;;;;;5.32;4.80;;;;;;;2.16;100.00;92250.00;2108569;28;20027;-79
2024/01/07 02:09:50;;;;;;;6.53;5.20;;;;;;;2.20;100.00;92253.38;2103699;28;20028;-80
2024/01/07 02:10:51;;;;;;;5.05;4.05;;;;;;;2.15;100.00;92248.53;2106390;28;20019;-82
2024/01/07 02:12:05;;;;;;;6.43;5.38;;;;;;;2.21;100.00;92256.78;2112652;28;20063;-81
2024/01/07 02:13:05;;;;;;;5.15;4.55;;;;;;;2.22;100.00;92253.75;2097713;28;20520;-80
2024/01/07 02:14:06;;;;;;;5.00;4.50;;;;;;;2.31;100.00;92255.22;2111888;28;20027;-79
2024/01/07 02:15:09;;;;;;;5.72;4.50;;;;;;;2.21;100.00;92254.13;2110088;28;20034;-83
2024/01/07 02:16:11;;;;;;;5.53;4.97;;;;;;;2.08;100.00;92253.06;2102885;28;20031;-81
2024/01/07 02:17:15;;;;;;;6.13;4.55;;;;;;;2.27;100.00;92253.34;2102981;28;20116;-79
2024/01/07 02:18:17;;;;;;;5.60;4.43;;;;;;;2.48;100.00;92252.47;2110612;28;20023;-81
2024/01/07 02:19:25;;;;;;;6.05;4.63;;;;;;;2.45;100.00;92252.50;2111048;28;20403;-80
2024/01/07 02:20:56;;;;;;;5.55;4.65;;;;;;;2.40;100.00;92258.94;2093040;28;20465;-80
2024/01/07 02:22:18;;;;;;;5.65;4.47;;;;;;;2.23;100.00;92257.13;2092353;28;20059;-81
2024/01/07 02:31:37;;;;;;;6.00;4.15;;;;;;;1.53;100.00;92256.97;2113185;28;20039;-78
2024/01/07 02:36:53;;;;;;;5.07;4.57;;;;;;;1.61;100.00;92260.34;2114465;28;20433;-81
2024/01/07 02:39:50;;;;;;;4.53;4.00;;;;;;;1.64;100.00;92256.97;2114318;28;20027;-79
2024/01/07 02:43:17;;;;;;;4.47;4.00;;;;;;;1.70;100.00;92258.06;2120511;27;20038;-80
2024/01/07 02:46:15;;;;;;;5.15;4.35;;;;;;;1.81;100.00;92256.16;2120196;27;20027;-78
2024/01/07 02:47:17;;;;;;;4.95;4.15;;;;;;;1.82;100.00;92256.91;2111377;28;20020;-78
2024/01/07 02:48:19;;;;;;;5.63;4.57;;;;;;;1.79;100.00;92250.50;2111704;28;20570;-79
2024/01/07 02:49:21;;;;;;;5.20;4.70;;;;;;;1.72;100.00;92258.44;2112003;27;20066;-78
2024/01/07 02:50:22;;;;;;;5.82;4.90;;;;;;;1.60;100.00;92249.06;2118871;28;20101;-79
2024/01/07 02:51:24;;;;;;;5.68;4.82;;;;;;;1.66;100.00;92254.69;2112800;28;20487;-80
2024/01/07 02:52:25;;;;;;;4.53;4.10;;;;;;;1.64;100.00;92252.44;2103081;28;20445;-83
2024/01/07 02:53:26;;;;;;;7.03;4.57;;;;;;;1.53;100.00;92251.72;2102977;28;20059;-79
2024/01/07 02:54:27;;;;;;;5.25;4.50;;;;;;;1.63;100.00;92250.94;2112264;28;20023;-85
2024/01/07 02:55:27;;;;;;;5.20;4.70;;;;;;;1.71;100.00;92255.06;2119553;27;20118;-77
2024/01/07 02:58:26;;;;;;;4.72;4.30;;;;;;;1.62;100.00;92259.22;2117099;28;20023;-79
2024/01/07 02:59:27;;;;;;;5.15;4.50;;;;;;;1.60;100.00;92245.69;2120344;28;20019;-79
2024/01/07 03:00:28;;;;;;;5.32;4.45;;;;;;;1.61;100.00;92255.09;2111444;28;20484;-80
2024/01/07 03:01:30;;;;;;;5.15;4.65;;;;;;;1.63;100.00;92250.19;2102150;28;20035;-84
2024/01/07 03:02:31;;;;;;;6.65;5.10;;;;;;;1.73;100.00;92249.41;2086574;28;20172;-80
2024/01/07 03:03:32;;;;;;;5.20;4.70;;;;;;;1.70;100.00;92252.81;2103275;28;20048;-82
2024/01/07 03:04:33;;;;;;;5.90;4.85;;;;;;;1.80;100.00;92254.66;2113877;28;20038;-80
2024/01/07 03:05:34;;;;;;;5.53;4.70;;;;;;;1.81;100.00;92261.44;2119907;28;20024;-81
2024/01/07 03:06:35;;;;;;;5.13;4.55;;;;;;;1.73;100.00;92252.03;2118807;28;20095;-80
2024/01/07 03:07:37;;;;;;;5.55;4.97;;;;;;;1.71;100.00;92256.94;2101620;28;20051;-82
2024/01/07 03:08:38;;;;;;;5.88;4.60;;;;;;;1.72;100.00;92253.94;2103036;28;20077;-81
2024/01/07 03:09:39;;;;;;;5.20;4.63;;;;;;;1.62;100.00;92249.44;2111258;28;20485;-80
2024/01/07 03:10:40;;;;;;;7.45;4.85;;;;;;;1.71;100.00;92249.03;2102040;28;20032;-80
2024/01/07 03:11:41;;;;;;;5.18;4.68;;;;;;;1.72;100.00;92253.94;2102991;28;20039;-80
2024/01/07 03:12:42;;;;;;;5.38;4.43;;;;;;;1.63;100.00;92258.09;2119656;28;20784;-80
2024/01/07 03:13:43;;;;;;;6.07;4.93;;;;;;;1.59;100.00;92257.34;2110728;28;20035;-80
2024/01/07 03:14:44;;;;;;;5.43;4.65;;;;;;;1.66;100.00;92249.41;2104506;27;20334;-81
2024/01/07 03:15:45;;;;;;;5.72;4.35;;;;;;;1.67;100.00;92256.22;2115343;27;20329;-79
2024/01/07 03:16:46;;;;;;;5.35;4.35;;;;;;;1.62;100.00;92251.31;2121685;27;20028;-81
2024/01/07 03:17:47;;;;;;;6.03;5.07;;;;;;;1.59;100.00;92254.72;2112383;28;20027;-82
2024/01/07 03:18:48;;;;;;;6.75;5.00;;;;;;;1.61;100.00;92255.09;2102286;28;20101;-80
2024/01/07 03:19:50;;;;;;;5.57;4.47;;;;;;;1.66;100.00;92255.44;2094441;28;20070;-81
2024/01/07 03:20:51;;;;;;;5.78;4.63;;;;;;;1.59;100.00;92265.25;2112666;28;20843;-80
2024/01/07 03:21:54;;;;;;;5.70;4.47;;;;;;;1.62;100.00;92257.31;2103356;28;20307;-80
2024/01/07 03:22:55;;;;;;;4.93;4.32;;;;;;;1.63;100.00;92256.22;2098476;28;20512;-79
2024/01/07 03:23:56;;;;;;;5.28;4.78;;;;;;;1.60;100.00;92256.22;2114289;28;20365;-79
2024/01/07 03:24:57;;;;;;;5.35;4.60;;;;;;;1.59;100.00;92262.63;2113970;28;20036;-80
2024/01/07 03:25:58;;;;;;;7.53;4.78;;;;;;;1.69;100.00;92256.56;2105805;28;20036;-78
2024/01/07 03:26:59;;;;;;;6.45;4.68;;;;;;;1.68;100.00;92262.97;2113187;28;20052;-78
2024/01/07 03:28:00;;;;;;;5.68;4.45;;;;;;;1.71;100.00;92259.56;2117938;27;20031;-82
2024/01/07 03:29:02;;;;;;;5.78;4.35;;;;;;;1.68;100.00;92255.06;2118009;28;20137;-79
2024/01/07 03:30:03;;;;;;;4.53;4.10;;;;;;;1.65;100.00;92256.56;2114238;27;20059;-80
2024/01/07 03:31:13;;;;;;;5.10;4.30;;;;;;;1.68;100.00;92255.81;2117216;28;20113;-80
2024/01/07 03:32:14;;;;;;;4.53;4.00;;;;;;;1.66;100.00;92252.06;2115146;28;20034;-84
2024/01/07 03:33:15;;;;;;;4.93;4.15;;;;;;;1.72;100.00;92251.28;2114157;28;20372;-83
2024/01/07 03:34:16;;;;;;;5.03;4.35;;;;;;;1.65;100.00;92264.47;2127343;27;20023;-80
2024/01/07 03:35:17;;;;;;;4.75;3.92;;;;;;;1.73;100.00;92258.06;2120789;27;20034;-78
2024/01/07 03:36:18;;;;;;;4.55;3.90;;;;;;;1.76;100.00;92259.94;2121646;27;20119;-83
2024/01/07 03:37:19;;;;;;;4.50;4.10;;;;;;;1.71;100.00;92259.56;2113446;28;20534;-81
2024/01/07 03:38:20;;;;;;;4.57;3.80;;;;;;;1.71;100.00;92259.56;2106010;28;20152;-81
2024/01/07 03:39:21;;;;;;;5.25;4.40;;;;;;;1.66;100.00;92263.34;2097194;28;20048;-81
2024/01/07 03:40:22;;;;;;;4.55;3.70;;;;;;;1.70;100.00;92268.59;2098331;28;20415;-80
2024/01/07 03:41:23;;;;;;;4.55;3.95;;;;;;;1.68;100.00;92263.72;2107755;28;20103;-80
2024/01/07 03:42:24;;;;;;;4.65;3.65;;;;;;;1.69;100.00;92259.94;2105043;28;20437;-80
2024/01/07 03:43:25;;;;;;;4.80;4.13;;;;;;;1.80;100.00;92269.69;2108884;28;20473;-82
2024/01/07 03:44:26;;;;;;;4.72;4.00;;;;;;;1.78;100.00;92270.09;2109248;28;20020;-81
2024/01/07 03:45:27;;;;;;;5.80;4.05;;;;;;;1.63;100.00;92258.84;2103258;28;20027;-80
2024/01/07 03:47:20;;;;;;;5.35;4.18;;;;;;;1.80;100.00;92267.06;2113699;28;20028;-79
2024/01/07 03:48:24;;;;;;;4.60;3.80;;;;;;;1.67;100.00;92256.22;2108325;28;20024;-79
2024/01/07 03:49:36;;;;;;;4.25;3.67;;;;;;;1.64;100.00;92257.72;2099035;27;20032;-80
2024/01/07 03:50:39;;;;;;;4.25;3.72;;;;;;;1.72;100.00;92261.09;2115454;27;20027;-82
2024/01/07 03:51:40;;;;;;;4.90;4.03;;;;;;;1.66;100.00;92259.97;2111193;28;20030;-81
2024/01/07 03:52:41;;;;;;;5.78;4.32;;;;;;;1.69;100.00;92261.84;2104213;28;20023;-80
2024/01/07 03:53:43;;;;;;;5.22;4.00;;;;;;;1.70;100.00;92260.69;2104444;28;20024;-81
2024/01/07 03:54:44;;;;;;;4.50;4.05;;;;;;;1.63;100.00;92260.75;2109804;28;20119;-79
2024/01/07 03:55:45;;;;;;;5.03;3.85;;;;;;;1.62;100.00;92259.97;2107750;28;20445;-79
2024/01/07 03:56:46;;;;;;;4.78;3.88;;;;;;;1.60;100.00;92261.50;2108581;28;20047;-80
2024/01/07 03:57:47;;;;;;;4.13;3.72;;;;;;;1.61;100.00;92257.72;2114255;27;20467;-79
2024/01/07 03:58:48;;;;;;;4.78;4.28;;;;;;;1.74;100.00;92261.44;2110277;28;20040;-79
2024/01/07 03:59:49;;;;;;;5.10;4.03;;;;;;;1.79;100.00;92260.31;2102172;28;20890;-79
2024/01/07 04:00:53;;;;;;;4.88;4.25;;;;;;;1.73;100.00;92260.69;2105567;28;20464;-80
2024/01/07 04:04:34;;;;;;;4.30;3.60;;;;;;;1.62;100.00;92252.06;2118331;27;20065;-79
2024/01/07 04:05:35;;;;;;;4.07;3.53;;;;;;;1.60;100.00;92264.13;2105168;28;20020;-81
2024/01/07 04:06:35;;;;;;;4.65;3.70;;;;;;;1.68;100.00;92262.97;2104084;28;20435;-81
2024/01/07 04:13:56;;;;;;;3.88;3.45;;;;;;;1.57;100.00;92251.69;2116509;27;20079;-79
2024/01/07 04:14:57;;;;;;;4.22;3.65;;;;;;;1.58;100.00;92261.88;2116629;27;20039;-78
2024/01/07 04:15:58;;;;;;;5.55;4.20;;;;;;;1.49;100.00;92262.28;2105099;28;20032;-79
2024/01/07 04:17:02;;;;;;;4.35;3.72;;;;;;;1.46;100.00;92262.28;2112730;28;20027;-80
2024/01/07 04:20:13;;;;;;;4.47;3.75;;;;;;;1.54;100.00;92258.50;2112144;28;20423;-80
2024/01/07 04:21:14;;;;;;;3.90;3.50;;;;;;;1.53;100.00;92267.50;2104770;28;20050;-78
2024/01/07 04:22:15;;;;;;;4.05;3.65;;;;;;;1.64;100.00;92267.50;2095239;28;20137;-82
2024/01/07 04:23:22;;;;;;;4.22;3.83;;;;;;;1.62;100.00;92265.22;2102452;28;20020;-81
2024/01/07 04:24:23;;;;;;;4.78;4.10;;;;;;;1.62;100.00;92267.13;2106686;27;20028;-79
2024/01/07 04:25:25;;;;;;;3.63;3.28;;;;;;;1.68;100.00;92268.25;2104288;28;20032;-78
2024/01/07 04:26:26;;;;;;;4.18;3.22;;;;;;;1.58;100.00;92269.00;2102564;28;20107;-79
2024/01/07 04:27:27;;;;;;;3.88;3.40;;;;;;;1.56;100.00;92277.28;2109216;28;20023;-81
2024/01/07 04:29:14;;;;;;;4.50;3.80;;;;;;;1.64;100.00;92267.50;2101557;28;20123;-78
2024/01/07 04:30:21;;;;;;;4.15;3.22;;;;;;;1.57;100.00;92275.41;2108500;28;20682;-79
2024/01/07 04:31:22;;;;;;;3.67;3.10;;;;;;;1.57;100.00;92268.25;2105131;27;20408;-80
2024/01/07 04:32:23;;;;;;;4.20;3.72;;;;;;;1.58;100.00;92280.31;2103486;28;20027;-78
2024/01/07 04:33:24;;;;;;;4.32;3.40;;;;;;;1.61;100.00;92274.25;2097246;28;20465;-78
2024/01/07 04:34:25;;;;;;;3.58;3.28;;;;;;;1.54;100.00;92273.53;2105507;28;20047;-78
2024/01/07 04:53:00;;;;;;;3.42;3.00;;;;;;;1.80;100.00;92286.28;2114254;27;20417;-78
2024/01/07 04:54:01;;;;;;;3.40;3.10;;;;;;;1.79;100.00;92290.03;2115547;27;20042;-79
2024/01/07 04:55:02;;;;;;;3.40;3.10;;;;;;;1.83;100.00;92285.50;2108054;28;20182;-80
2024/01/07 04:56:04;;;;;;;3.90;3.38;;;;;;;1.81;100.00;92282.50;2091427;28;20119;-78
2024/01/07 04:57:05;;;;;;;4.18;3.40;;;;;;;1.80;100.00;92288.91;2101875;28;20051;-79
2024/01/07 04:58:06;;;;;;;3.53;3.22;;;;;;;1.78;100.00;92291.16;2113149;28;20423;-77
2024/01/07 04:59:06;;;;;;;4.60;3.97;;;;;;;1.85;100.00;92293.78;2115068;27;20521;-79
2024/01/07 05:00:08;;;;;;;3.95;3.63;;;;;;;1.67;100.00;92291.19;2106891;28;20468;-79
2024/01/07 05:01:09;;;;;;;4.10;3.47;;;;;;;1.65;100.00;92290.81;2096157;28;20102;-78
2024/01/07 05:02:11;;;;;;;4.00;3.65;;;;;;;1.51;100.00;92291.59;2105004;28;20039;-83
2024/01/07 05:03:12;;;;;;;3.53;3.22;;;;;;;1.63;100.00;92287.81;2113147;28;20050;-80
2024/01/07 05:04:13;;;;;;;3.50;3.20;;;;;;;1.53;100.00;92293.84;2112902;28;20392;-79
2024/01/07 05:05:14;;;;;;;3.63;3.00;;;;;;;1.61;100.00;92297.22;2112953;28;20038;-79
2024/01/07 05:06:15;;;;;;;4.90;3.28;;;;;;;1.58;100.00;92295.34;2096198;28;20032;-82
2024/01/07 05:07:16;;;;;;;3.50;3.20;;;;;;;1.68;100.00;92299.84;2094475;28;20062;-83
2024/01/07 05:08:17;;;;;;;3.85;3.00;;;;;;;1.72;100.00;92300.59;2095664;28;20477;-79
2024/01/07 05:09:18;;;;;;;3.75;3.30;;;;;;;1.76;100.00;92290.81;2105396;28;20118;-78
2024/01/07 05:10:19;;;;;;;3.08;2.75;;;;;;;1.69;100.00;92298.72;2108657;28;20027;-81
2024/01/07 05:11:20;;;;;;;3.00;2.58;;;;;;;1.60;100.00;92293.09;2113076;28;20027;-77
2024/01/07 05:12:21;;;;;;;3.63;3.10;;;;;;;1.54;100.00;92297.22;2113308;27;20095;-80
2024/01/07 05:13:22;;;;;;;3.92;3.40;;;;;;;1.58;100.00;92303.25;2111259;28;20046;-80
2024/01/07 05:14:23;;;;;;;3.80;3.17;;;;;;;1.62;100.00;92303.97;2105839;28;20031;-79
2024/01/07 05:15:24;;;;;;;4.07;3.40;;;;;;;1.69;100.00;92296.09;2118599;27;20503;-80
2024/01/07 05:16:25;;;;;;;3.20;2.75;;;;;;;1.78;100.00;92304.34;2109301;28;20588;-81
2024/01/07 05:17:26;;;;;;;3.58;3.10;;;;;;;1.63;100.00;92308.16;2104563;28;20106;-81
2024/01/07 05:21:20;;;;;;;3.88;3.08;;;;;;;1.46;100.00;92302.50;2114400;27;20349;-77
2024/01/07 05:24:47;;;;;;;4.65;3.42;;;;;;;1.46;100.00;92305.16;2119403;27;20037;-81
2024/01/07 05:25:48;;;;;;;3.53;3.08;;;;;;;1.58;100.00;92311.91;2094163;28;20114;-82
2024/01/07 05:26:49;;;;;;;4.13;3.63;;;;;;;1.57;100.00;92305.13;2093949;28;20764;-80
2024/01/07 05:27:50;;;;;;;4.00;3.60;;;;;;;1.72;100.00;92306.63;2097816;28;20028;-82
2024/01/07 05:28:51;;;;;;;4.97;4.00;;;;;;;1.71;100.00;92317.50;2100133;28;20028;-81
2024/01/07 05:29:54;;;;;;;5.25;4.03;;;;;;;1.61;100.00;92311.13;2103119;28;20031;-79
2024/01/07 05:30:55;;;;;;;5.03;3.72;;;;;;;1.66;100.00;92318.66;2094749;28;20081;-82
2024/01/07 05:31:58;;;;;;;4.82;3.90;;;;;;;1.66;100.00;92310.00;2099750;28;20097;-79
2024/01/07 05:33:00;;;;;;;5.35;3.88;;;;;;;1.65;100.00;92317.16;2106474;28;20023;-81
2024/01/07 05:34:01;;;;;;;4.38;3.72;;;;;;;1.63;100.00;92319.44;2100246;28;20380;-78
2024/01/07 05:35:02;;;;;;;3.90;3.50;;;;;;;1.49;100.00;92319.41;2094628;28;20044;-80
2024/01/07 05:36:04;;;;;;;5.35;3.65;;;;;;;1.59;100.00;92320.56;2098159;28;20055;-78
2024/01/07 05:37:42;;;;;;;4.82;3.55;;;;;;;1.54;100.00;92308.53;2096007;28;20039;-82
2024/01/07 05:39:08;;;;;;;5.05;3.83;;;;;;;1.48;100.00;92323.94;2098412;28;20028;-78
2024/01/07 05:42:33;;;;;;;4.35;3.30;;;;;;;1.71;100.00;92315.66;2109903;28;20027;-81
2024/01/07 05:47:40;;;;;;;4.63;3.65;;;;;;;1.85;100.00;92314.13;2107582;28;20386;-82
2024/01/07 05:48:46;;;;;;;6.45;4.20;;;;;;;1.71;100.00;92322.78;2112201;28;20031;-84
2024/01/07 05:49:47;;;;;;;7.55;4.32;;;;;;;1.82;100.00;92318.25;2096164;28;20036;-79
2024/01/07 05:50:48;;;;;;;6.72;4.30;;;;;;;1.79;100.00;92326.91;2101857;28;20133;-79
2024/01/07 05:51:49;;;;;;;6.75;4.28;;;;;;;1.70;100.00;92323.91;2096505;28;20032;-80
2024/01/07 05:52:50;;;;;;;6.30;4.18;;;;;;;1.67;100.00;92322.06;2108189;28;20535;-79
2024/01/07 05:53:51;;;;;;;5.38;4.15;;;;;;;1.72;100.00;92319.78;2106424;28;20036;-78
2024/01/07 05:54:52;;;;;;;5.45;4.07;;;;;;;1.60;100.00;92322.81;2098918;28;20032;-83
2024/01/07 05:55:53;;;;;;;5.88;3.90;;;;;;;1.69;100.00;92323.16;2091439;28;20082;-80
2024/01/07 05:56:54;;;;;;;6.68;4.18;;;;;;;1.69;100.00;92315.28;2099108;28;20674;-77
2024/01/07 05:57:55;;;;;;;6.50;4.82;;;;;;;1.75;100.00;92321.66;2094533;28;20043;-77
2024/01/07 05:59:15;;;;;;;6.70;4.32;;;;;;;1.75;100.00;92329.56;2098734;28;20468;-80